sensor_id;sensor_type;location;lat;lon;timestamp;P1;durP1;ratioP1;P2;durP2;ratioP2
83663;SDS011;73634;47.068;15.426;2024-03-08T00:01:10;12.88;;;5.53;;
83663;SDS011;73634;47.068;15.426;2024-03-08T00:03:35;13.00;;;5.72;;
83663;SDS011;73634;47.068;15.426;2024-03-08T00:06:00;8.77;;;4.32;;
83663;SDS011;73634;47.068;15.426;2024-03-08T00:08:26;12.85;;;6.10;;
83663;SDS011;73634;47.068;15.426;2024-03-08T00:14:18;10.40;;;4.50;;
83663;SDS011;73634;47.068;15.426;2024-03-08T00:16:44;11.55;;;5.05;;
83663;SDS011;73634;47.068;15.426;2024-03-08T00:19:09;10.80;;;4.30;;
83663;SDS011;73634;47.068;15.426;2024-03-08T00:21:35;12.93;;;4.53;;
83663;SDS011;73634;47.068;15.426;2024-03-08T00:24:00;12.65;;;5.32;;
83663;SDS011;73634;47.068;15.426;2024-03-08T00:26:26;9.35;;;3.88;;
83663;SDS011;73634;47.068;15.426;2024-03-08T00:28:51;12.70;;;5.00;;
83663;SDS011;73634;47.068;15.426;2024-03-08T00:31:18;11.35;;;4.47;;
83663;SDS011;73634;47.068;15.426;2024-03-08T00:33:44;12.00;;;5.50;;
83663;SDS011;73634;47.068;15.426;2024-03-08T00:38:41;6.72;;;2.75;;
83663;SDS011;73634;47.068;15.426;2024-03-08T00:41:07;9.77;;;3.90;;
83663;SDS011;73634;47.068;15.426;2024-03-08T00:43:32;10.63;;;5.20;;
83663;SDS011;73634;47.068;15.426;2024-03-08T00:45:58;13.15;;;4.72;;
83663;SDS011;73634;47.068;15.426;2024-03-08T00:48:23;10.68;;;4.18;;
83663;SDS011;73634;47.068;15.426;2024-03-08T00:50:49;11.50;;;4.35;;
83663;SDS011;73634;47.068;15.426;2024-03-08T00:53:14;10.68;;;4.63;;
83663;SDS011;73634;47.068;15.426;2024-03-08T00:55:40;10.75;;;4.03;;
83663;SDS011;73634;47.068;15.426;2024-03-08T00:58:05;11.50;;;4.85;;
83663;SDS011;73634;47.068;15.426;2024-03-08T01:03:02;12.38;;;3.65;;
83663;SDS011;73634;47.068;15.426;2024-03-08T01:05:28;13.82;;;4.55;;
83663;SDS011;73634;47.068;15.426;2024-03-08T01:07:53;11.73;;;3.78;;
83663;SDS011;73634;47.068;15.426;2024-03-08T01:10:19;10.38;;;4.07;;
83663;SDS011;73634;47.068;15.426;2024-03-08T01:12:44;10.00;;;3.75;;
83663;SDS011;73634;47.068;15.426;2024-03-08T01:15:10;10.75;;;4.75;;
83663;SDS011;73634;47.068;15.426;2024-03-08T01:17:35;12.10;;;4.68;;
83663;SDS011;73634;47.068;15.426;2024-03-08T01:20:01;11.57;;;4.78;;
83663;SDS011;73634;47.068;15.426;2024-03-08T01:22:28;11.80;;;5.35;;
83663;SDS011;73634;47.068;15.426;2024-03-08T01:28:13;14.23;;;4.65;;
83663;SDS011;73634;47.068;15.426;2024-03-08T01:30:39;12.77;;;5.43;;
83663;SDS011;73634;47.068;15.426;2024-03-08T01:33:04;13.57;;;5.82;;
83663;SDS011;73634;47.068;15.426;2024-03-08T01:35:29;12.90;;;5.22;;
83663;SDS011;73634;47.068;15.426;2024-03-08T01:37:55;14.18;;;4.88;;
83663;SDS011;73634;47.068;15.426;2024-03-08T01:40:21;13.52;;;5.18;;
83663;SDS011;73634;47.068;15.426;2024-03-08T01:42:47;9.20;;;4.03;;
83663;SDS011;73634;47.068;15.426;2024-03-08T01:45:13;11.73;;;4.18;;
83663;SDS011;73634;47.068;15.426;2024-03-08T01:47:38;11.45;;;4.60;;
83663;SDS011;73634;47.068;15.426;2024-03-08T01:53:00;12.02;;;4.60;;
83663;SDS011;73634;47.068;15.426;2024-03-08T01:55:27;14.18;;;5.72;;
83663;SDS011;73634;47.068;15.426;2024-03-08T01:57:52;13.80;;;5.78;;
83663;SDS011;73634;47.068;15.426;2024-03-08T02:00:18;12.07;;;5.65;;
83663;SDS011;73634;47.068;15.426;2024-03-08T02:02:45;13.55;;;5.53;;
83663;SDS011;73634;47.068;15.426;2024-03-08T02:05:11;13.65;;;6.05;;
83663;SDS011;73634;47.068;15.426;2024-03-08T02:07:40;16.30;;;5.82;;
83663;SDS011;73634;47.068;15.426;2024-03-08T02:10:09;15.93;;;6.40;;
83663;SDS011;73634;47.068;15.426;2024-03-08T02:12:35;16.52;;;5.68;;
83663;SDS011;73634;47.068;15.426;2024-03-08T02:16:42;13.95;;;5.72;;
83663;SDS011;73634;47.068;15.426;2024-03-08T02:19:07;10.45;;;5.20;;
83663;SDS011;73634;47.068;15.426;2024-03-08T02:21:34;12.45;;;5.55;;
83663;SDS011;73634;47.068;15.426;2024-03-08T02:24:01;15.15;;;6.57;;
83663;SDS011;73634;47.068;15.426;2024-03-08T02:26:26;15.70;;;5.53;;
83663;SDS011;73634;47.068;15.426;2024-03-08T02:28:52;16.45;;;6.15;;
83663;SDS011;73634;47.068;15.426;2024-03-08T02:31:17;15.63;;;5.90;;
83663;SDS011;73634;47.068;15.426;2024-03-08T02:33:43;14.68;;;6.38;;
83663;SDS011;73634;47.068;15.426;2024-03-08T02:36:08;12.65;;;5.43;;
83663;SDS011;73634;47.068;15.426;2024-03-08T02:41:38;15.98;;;5.68;;
83663;SDS011;73634;47.068;15.426;2024-03-08T02:44:04;17.92;;;6.22;;
83663;SDS011;73634;47.068;15.426;2024-03-08T02:46:29;15.30;;;7.05;;
83663;SDS011;73634;47.068;15.426;2024-03-08T02:48:55;13.68;;;6.05;;
83663;SDS011;73634;47.068;15.426;2024-03-08T02:51:21;12.65;;;4.93;;
83663;SDS011;73634;47.068;15.426;2024-03-08T02:53:46;14.88;;;6.70;;
83663;SDS011;73634;47.068;15.426;2024-03-08T02:56:13;16.15;;;6.45;;
83663;SDS011;73634;47.068;15.426;2024-03-08T02:58:41;19.23;;;7.00;;
83663;SDS011;73634;47.068;15.426;2024-03-08T03:01:07;21.88;;;6.72;;
83663;SDS011;73634;47.068;15.426;2024-03-08T03:05:20;12.70;;;5.95;;
83663;SDS011;73634;47.068;15.426;2024-03-08T03:07:46;10.55;;;5.07;;
83663;SDS011;73634;47.068;15.426;2024-03-08T03:10:11;9.60;;;4.15;;
83663;SDS011;73634;47.068;15.426;2024-03-08T03:12:43;16.60;;;5.55;;
83663;SDS011;73634;47.068;15.426;2024-03-08T03:15:13;14.52;;;5.75;;
83663;SDS011;73634;47.068;15.426;2024-03-08T03:17:39;15.38;;;6.30;;
83663;SDS011;73634;47.068;15.426;2024-03-08T03:20:07;15.45;;;7.07;;
83663;SDS011;73634;47.068;15.426;2024-03-08T03:22:40;14.65;;;6.90;;
83663;SDS011;73634;47.068;15.426;2024-03-08T03:25:06;14.10;;;5.18;;
83663;SDS011;73634;47.068;15.426;2024-03-08T03:29:01;13.73;;;5.53;;
83663;SDS011;73634;47.068;15.426;2024-03-08T03:31:28;13.88;;;6.80;;
83663;SDS011;73634;47.068;15.426;2024-03-08T03:33:53;15.35;;;5.70;;
83663;SDS011;73634;47.068;15.426;2024-03-08T03:36:19;14.25;;;5.82;;
83663;SDS011;73634;47.068;15.426;2024-03-08T03:38:45;12.75;;;5.63;;
83663;SDS011;73634;47.068;15.426;2024-03-08T03:41:10;12.85;;;5.35;;
83663;SDS011;73634;47.068;15.426;2024-03-08T03:43:39;12.85;;;5.68;;
83663;SDS011;73634;47.068;15.426;2024-03-08T03:46:07;13.23;;;5.57;;
83663;SDS011;73634;47.068;15.426;2024-03-08T03:48:35;12.30;;;4.43;;
83663;SDS011;73634;47.068;15.426;2024-03-08T03:53:38;14.55;;;5.32;;
83663;SDS011;73634;47.068;15.426;2024-03-08T03:56:04;8.48;;;3.63;;
83663;SDS011;73634;47.068;15.426;2024-03-08T03:58:32;12.60;;;4.65;;
83663;SDS011;73634;47.068;15.426;2024-03-08T04:00:57;12.85;;;5.05;;
83663;SDS011;73634;47.068;15.426;2024-03-08T04:03:23;11.20;;;4.20;;
83663;SDS011;73634;47.068;15.426;2024-03-08T04:05:48;11.40;;;4.25;;
83663;SDS011;73634;47.068;15.426;2024-03-08T04:08:14;11.27;;;4.75;;
83663;SDS011;73634;47.068;15.426;2024-03-08T04:10:39;13.82;;;5.38;;
83663;SDS011;73634;47.068;15.426;2024-03-08T04:13:06;10.93;;;5.32;;
83663;SDS011;73634;47.068;15.426;2024-03-08T04:18:04;10.93;;;4.22;;
83663;SDS011;73634;47.068;15.426;2024-03-08T04:20:29;12.88;;;4.60;;
83663;SDS011;73634;47.068;15.426;2024-03-08T04:22:55;14.25;;;5.05;;
83663;SDS011;73634;47.068;15.426;2024-03-08T04:25:21;14.15;;;5.40;;
83663;SDS011;73634;47.068;15.426;2024-03-08T04:27:46;15.00;;;6.95;;
83663;SDS011;73634;47.068;15.426;2024-03-08T04:30:13;13.95;;;5.95;;
83663;SDS011;73634;47.068;15.426;2024-03-08T04:32:39;15.15;;;5.93;;
83663;SDS011;73634;47.068;15.426;2024-03-08T04:35:06;12.75;;;4.55;;
83663;SDS011;73634;47.068;15.426;2024-03-08T04:37:33;13.25;;;4.15;;
83663;SDS011;73634;47.068;15.426;2024-03-08T04:39:59;13.60;;;5.40;;
83663;SDS011;73634;47.068;15.426;2024-03-08T04:45:00;12.13;;;4.80;;
83663;SDS011;73634;47.068;15.426;2024-03-08T04:47:26;13.80;;;5.40;;
83663;SDS011;73634;47.068;15.426;2024-03-08T04:49:52;13.88;;;6.43;;
83663;SDS011;73634;47.068;15.426;2024-03-08T04:52:18;17.33;;;6.90;;
83663;SDS011;73634;47.068;15.426;2024-03-08T04:54:43;18.35;;;7.00;;
83663;SDS011;73634;47.068;15.426;2024-03-08T04:57:10;19.83;;;7.43;;
83663;SDS011;73634;47.068;15.426;2024-03-08T04:59:36;12.77;;;5.97;;
83663;SDS011;73634;47.068;15.426;2024-03-08T05:02:01;12.98;;;5.60;;
83663;SDS011;73634;47.068;15.426;2024-03-08T05:04:27;12.40;;;5.30;;
83663;SDS011;73634;47.068;15.426;2024-03-08T05:09:27;20.85;;;6.65;;
83663;SDS011;73634;47.068;15.426;2024-03-08T05:11:54;12.48;;;5.35;;
83663;SDS011;73634;47.068;15.426;2024-03-08T05:14:19;12.60;;;5.22;;
83663;SDS011;73634;47.068;15.426;2024-03-08T05:16:46;14.60;;;6.97;;
83663;SDS011;73634;47.068;15.426;2024-03-08T05:19:17;12.50;;;5.05;;
83663;SDS011;73634;47.068;15.426;2024-03-08T05:21:44;16.23;;;6.00;;
83663;SDS011;73634;47.068;15.426;2024-03-08T05:24:10;16.33;;;5.72;;
83663;SDS011;73634;47.068;15.426;2024-03-08T05:26:35;12.27;;;5.68;;
83663;SDS011;73634;47.068;15.426;2024-03-08T05:29:02;12.32;;;6.05;;
83663;SDS011;73634;47.068;15.426;2024-03-08T05:31:47;15.80;;;6.20;;
83663;SDS011;73634;47.068;15.426;2024-03-08T05:35:53;17.80;;;6.47;;
83663;SDS011;73634;47.068;15.426;2024-03-08T05:38:18;14.98;;;6.80;;
83663;SDS011;73634;47.068;15.426;2024-03-08T05:40:48;12.27;;;5.07;;
83663;SDS011;73634;47.068;15.426;2024-03-08T05:43:17;13.95;;;5.35;;
83663;SDS011;73634;47.068;15.426;2024-03-08T05:45:44;14.73;;;6.20;;
83663;SDS011;73634;47.068;15.426;2024-03-08T05:48:10;15.68;;;7.22;;
83663;SDS011;73634;47.068;15.426;2024-03-08T05:50:37;14.85;;;6.45;;
83663;SDS011;73634;47.068;15.426;2024-03-08T05:53:03;16.08;;;6.30;;
83663;SDS011;73634;47.068;15.426;2024-03-08T05:58:19;20.75;;;7.15;;
83663;SDS011;73634;47.068;15.426;2024-03-08T06:00:44;15.90;;;6.72;;
83663;SDS011;73634;47.068;15.426;2024-03-08T06:03:11;18.50;;;6.90;;
83663;SDS011;73634;47.068;15.426;2024-03-08T06:05:36;15.57;;;6.47;;
83663;SDS011;73634;47.068;15.426;2024-03-08T06:08:06;12.85;;;4.90;;
83663;SDS011;73634;47.068;15.426;2024-03-08T06:10:32;12.95;;;6.00;;
83663;SDS011;73634;47.068;15.426;2024-03-08T06:12:58;13.48;;;5.70;;
83663;SDS011;73634;47.068;15.426;2024-03-08T06:15:24;11.15;;;5.38;;
83663;SDS011;73634;47.068;15.426;2024-03-08T06:17:50;16.02;;;5.72;;
83663;SDS011;73634;47.068;15.426;2024-03-08T06:23:15;13.70;;;7.10;;
83663;SDS011;73634;47.068;15.426;2024-03-08T06:25:43;15.73;;;7.55;;
83663;SDS011;73634;47.068;15.426;2024-03-08T06:28:11;15.35;;;6.78;;
83663;SDS011;73634;47.068;15.426;2024-03-08T06:30:37;16.05;;;7.07;;
83663;SDS011;73634;47.068;15.426;2024-03-08T06:33:02;15.48;;;7.97;;
83663;SDS011;73634;47.068;15.426;2024-03-08T06:35:27;19.23;;;8.23;;
83663;SDS011;73634;47.068;15.426;2024-03-08T06:37:53;12.80;;;7.07;;
83663;SDS011;73634;47.068;15.426;2024-03-08T06:40:18;14.45;;;6.50;;
83663;SDS011;73634;47.068;15.426;2024-03-08T06:42:44;18.80;;;8.20;;
83663;SDS011;73634;47.068;15.426;2024-03-08T06:47:56;16.38;;;6.43;;
83663;SDS011;73634;47.068;15.426;2024-03-08T06:50:21;18.58;;;7.93;;
83663;SDS011;73634;47.068;15.426;2024-03-08T06:52:47;16.40;;;6.70;;
83663;SDS011;73634;47.068;15.426;2024-03-08T06:55:17;15.27;;;6.63;;
83663;SDS011;73634;47.068;15.426;2024-03-08T06:57:43;15.27;;;8.35;;
83663;SDS011;73634;47.068;15.426;2024-03-08T07:00:08;20.92;;;8.80;;
83663;SDS011;73634;47.068;15.426;2024-03-08T07:02:43;17.27;;;6.47;;
83663;SDS011;73634;47.068;15.426;2024-03-08T07:05:10;15.80;;;7.20;;
83663;SDS011;73634;47.068;15.426;2024-03-08T07:07:36;14.90;;;6.93;;
83663;SDS011;73634;47.068;15.426;2024-03-08T07:12:38;12.90;;;6.65;;
83663;SDS011;73634;47.068;15.426;2024-03-08T07:15:04;17.17;;;7.30;;
83663;SDS011;73634;47.068;15.426;2024-03-08T07:17:30;13.55;;;6.90;;
83663;SDS011;73634;47.068;15.426;2024-03-08T07:19:56;18.55;;;7.03;;
83663;SDS011;73634;47.068;15.426;2024-03-08T07:22:24;15.82;;;6.97;;
83663;SDS011;73634;47.068;15.426;2024-03-08T07:24:49;13.77;;;7.18;;
83663;SDS011;73634;47.068;15.426;2024-03-08T07:27:35;14.52;;;7.05;;
83663;SDS011;73634;47.068;15.426;2024-03-08T07:30:01;14.68;;;7.30;;
83663;SDS011;73634;47.068;15.426;2024-03-08T07:32:28;15.20;;;7.55;;
83663;SDS011;73634;47.068;15.426;2024-03-08T07:34:55;16.77;;;9.00;;
83663;SDS011;73634;47.068;15.426;2024-03-08T07:39:49;14.15;;;7.72;;
83663;SDS011;73634;47.068;15.426;2024-03-08T07:42:15;13.18;;;6.35;;
83663;SDS011;73634;47.068;15.426;2024-03-08T07:44:42;11.25;;;5.85;;
83663;SDS011;73634;47.068;15.426;2024-03-08T07:47:08;12.20;;;6.30;;
83663;SDS011;73634;47.068;15.426;2024-03-08T07:49:34;12.00;;;5.68;;
83663;SDS011;73634;47.068;15.426;2024-03-08T07:52:00;10.77;;;4.57;;
83663;SDS011;73634;47.068;15.426;2024-03-08T07:54:26;13.20;;;6.05;;
83663;SDS011;73634;47.068;15.426;2024-03-08T07:56:52;12.80;;;6.07;;
83663;SDS011;73634;47.068;15.426;2024-03-08T07:59:17;17.23;;;6.13;;
83663;SDS011;73634;47.068;15.426;2024-03-08T08:01:43;14.90;;;6.85;;
83663;SDS011;73634;47.068;15.426;2024-03-08T08:05:45;13.55;;;5.70;;
83663;SDS011;73634;47.068;15.426;2024-03-08T08:08:11;14.98;;;6.10;;
83663;SDS011;73634;47.068;15.426;2024-03-08T08:10:37;13.85;;;6.40;;
83663;SDS011;73634;47.068;15.426;2024-03-08T08:13:02;12.77;;;5.78;;
83663;SDS011;73634;47.068;15.426;2024-03-08T08:15:29;18.88;;;7.30;;
83663;SDS011;73634;47.068;15.426;2024-03-08T08:17:55;12.50;;;5.00;;
83663;SDS011;73634;47.068;15.426;2024-03-08T08:20:20;17.65;;;6.72;;
83663;SDS011;73634;47.068;15.426;2024-03-08T08:22:47;15.73;;;6.03;;
83663;SDS011;73634;47.068;15.426;2024-03-08T08:25:13;15.00;;;6.43;;
83663;SDS011;73634;47.068;15.426;2024-03-08T08:29:56;13.20;;;5.85;;
83663;SDS011;73634;47.068;15.426;2024-03-08T08:32:22;16.83;;;6.35;;
83663;SDS011;73634;47.068;15.426;2024-03-08T08:34:47;14.00;;;5.72;;
83663;SDS011;73634;47.068;15.426;2024-03-08T08:37:13;18.13;;;7.03;;
83663;SDS011;73634;47.068;15.426;2024-03-08T08:39:39;19.67;;;6.90;;
83663;SDS011;73634;47.068;15.426;2024-03-08T08:42:04;16.27;;;7.05;;
83663;SDS011;73634;47.068;15.426;2024-03-08T08:44:30;15.90;;;6.07;;
83663;SDS011;73634;47.068;15.426;2024-03-08T08:46:59;14.50;;;5.20;;
83663;SDS011;73634;47.068;15.426;2024-03-08T08:49:24;17.83;;;6.95;;
83663;SDS011;73634;47.068;15.426;2024-03-08T08:54:28;12.15;;;5.88;;
83663;SDS011;73634;47.068;15.426;2024-03-08T08:56:53;14.07;;;6.20;;
83663;SDS011;73634;47.068;15.426;2024-03-08T08:59:18;14.88;;;4.97;;
83663;SDS011;73634;47.068;15.426;2024-03-08T09:01:47;15.05;;;6.07;;
83663;SDS011;73634;47.068;15.426;2024-03-08T09:04:12;11.10;;;4.63;;
83663;SDS011;73634;47.068;15.426;2024-03-08T09:06:38;11.90;;;5.45;;
83663;SDS011;73634;47.068;15.426;2024-03-08T09:09:06;10.15;;;4.38;;
83663;SDS011;73634;47.068;15.426;2024-03-08T09:11:34;16.05;;;7.18;;
83663;SDS011;73634;47.068;15.426;2024-03-08T09:14:00;15.43;;;6.97;;
83663;SDS011;73634;47.068;15.426;2024-03-08T09:18:54;11.27;;;5.82;;
83663;SDS011;73634;47.068;15.426;2024-03-08T09:21:20;9.45;;;4.00;;
83663;SDS011;73634;47.068;15.426;2024-03-08T09:23:45;13.27;;;5.75;;
83663;SDS011;73634;47.068;15.426;2024-03-08T09:26:10;13.07;;;5.13;;
83663;SDS011;73634;47.068;15.426;2024-03-08T09:28:37;9.73;;;4.13;;
83663;SDS011;73634;47.068;15.426;2024-03-08T09:31:03;10.65;;;4.63;;
83663;SDS011;73634;47.068;15.426;2024-03-08T09:33:30;12.40;;;5.35;;
83663;SDS011;73634;47.068;15.426;2024-03-08T09:35:56;10.82;;;3.88;;
83663;SDS011;73634;47.068;15.426;2024-03-08T09:38:22;13.18;;;5.15;;
83663;SDS011;73634;47.068;15.426;2024-03-08T09:43:04;10.30;;;4.18;;
83663;SDS011;73634;47.068;15.426;2024-03-08T09:45:29;12.65;;;5.50;;
83663;SDS011;73634;47.068;15.426;2024-03-08T09:48:00;10.82;;;5.45;;
83663;SDS011;73634;47.068;15.426;2024-03-08T09:50:26;11.73;;;5.28;;
83663;SDS011;73634;47.068;15.426;2024-03-08T09:52:54;11.07;;;5.00;;
83663;SDS011;73634;47.068;15.426;2024-03-08T09:55:22;10.65;;;5.00;;
83663;SDS011;73634;47.068;15.426;2024-03-08T09:57:47;15.45;;;5.07;;
83663;SDS011;73634;47.068;15.426;2024-03-08T10:00:33;12.90;;;6.85;;
83663;SDS011;73634;47.068;15.426;2024-03-08T10:03:02;14.00;;;5.95;;
83663;SDS011;73634;47.068;15.426;2024-03-08T10:08:15;9.38;;;4.50;;
83663;SDS011;73634;47.068;15.426;2024-03-08T10:10:40;16.40;;;8.13;;
83663;SDS011;73634;47.068;15.426;2024-03-08T10:13:06;9.40;;;4.30;;
83663;SDS011;73634;47.068;15.426;2024-03-08T10:15:32;7.10;;;3.20;;
83663;SDS011;73634;47.068;15.426;2024-03-08T10:17:58;10.38;;;4.72;;
83663;SDS011;73634;47.068;15.426;2024-03-08T10:20:23;10.95;;;5.45;;
83663;SDS011;73634;47.068;15.426;2024-03-08T10:22:49;10.32;;;4.85;;
83663;SDS011;73634;47.068;15.426;2024-03-08T10:25:14;8.85;;;4.70;;
83663;SDS011;73634;47.068;15.426;2024-03-08T10:27:40;10.15;;;4.13;;
83663;SDS011;73634;47.068;15.426;2024-03-08T10:32:41;10.32;;;5.00;;
83663;SDS011;73634;47.068;15.426;2024-03-08T10:35:07;16.67;;;7.57;;
83663;SDS011;73634;47.068;15.426;2024-03-08T10:37:33;10.00;;;5.25;;
83663;SDS011;73634;47.068;15.426;2024-03-08T10:40:05;10.43;;;4.65;;
83663;SDS011;73634;47.068;15.426;2024-03-08T10:42:41;11.52;;;4.38;;
83663;SDS011;73634;47.068;15.426;2024-03-08T10:47:41;10.57;;;4.68;;
83663;SDS011;73634;47.068;15.426;2024-03-08T10:50:19;8.02;;;3.83;;
83663;SDS011;73634;47.068;15.426;2024-03-08T10:52:47;10.45;;;4.47;;
83663;SDS011;73634;47.068;15.426;2024-03-08T10:57:22;9.60;;;4.15;;
83663;SDS011;73634;47.068;15.426;2024-03-08T10:59:49;9.43;;;3.97;;
83663;SDS011;73634;47.068;15.426;2024-03-08T11:02:15;7.93;;;4.10;;
83663;SDS011;73634;47.068;15.426;2024-03-08T11:04:48;8.68;;;3.55;;
83663;SDS011;73634;47.068;15.426;2024-03-08T11:07:15;9.70;;;4.15;;
83663;SDS011;73634;47.068;15.426;2024-03-08T11:09:45;6.47;;;2.50;;
83663;SDS011;73634;47.068;15.426;2024-03-08T11:12:19;9.90;;;4.47;;
83663;SDS011;73634;47.068;15.426;2024-03-08T11:15:00;10.27;;;5.18;;
83663;SDS011;73634;47.068;15.426;2024-03-08T11:22:22;9.45;;;4.43;;
83663;SDS011;73634;47.068;15.426;2024-03-08T11:24:49;8.07;;;4.15;;
83663;SDS011;73634;47.068;15.426;2024-03-08T11:27:14;11.70;;;5.25;;
83663;SDS011;73634;47.068;15.426;2024-03-08T11:29:40;9.75;;;5.32;;
83663;SDS011;73634;47.068;15.426;2024-03-08T11:32:14;10.68;;;5.90;;
83663;SDS011;73634;47.068;15.426;2024-03-08T11:34:47;9.73;;;4.85;;
83663;SDS011;73634;47.068;15.426;2024-03-08T11:37:18;8.55;;;3.35;;
83663;SDS011;73634;47.068;15.426;2024-03-08T11:39:54;11.18;;;4.65;;
83663;SDS011;73634;47.068;15.426;2024-03-08T11:42:29;10.07;;;4.88;;
83663;SDS011;73634;47.068;15.426;2024-03-08T11:47:29;9.23;;;4.22;;
83663;SDS011;73634;47.068;15.426;2024-03-08T11:49:56;7.57;;;3.05;;
83663;SDS011;73634;47.068;15.426;2024-03-08T11:52:22;10.38;;;3.60;;
83663;SDS011;73634;47.068;15.426;2024-03-08T11:54:53;10.25;;;5.18;;
83663;SDS011;73634;47.068;15.426;2024-03-08T11:57:20;8.45;;;4.57;;
83663;SDS011;73634;47.068;15.426;2024-03-08T11:59:55;8.80;;;4.65;;
83663;SDS011;73634;47.068;15.426;2024-03-08T12:02:30;9.75;;;5.28;;
83663;SDS011;73634;47.068;15.426;2024-03-08T12:04:59;12.45;;;6.22;;
83663;SDS011;73634;47.068;15.426;2024-03-08T12:07:25;6.55;;;2.80;;
83663;SDS011;73634;47.068;15.426;2024-03-08T12:12:10;6.72;;;3.03;;
83663;SDS011;73634;47.068;15.426;2024-03-08T12:14:36;7.35;;;3.38;;
83663;SDS011;73634;47.068;15.426;2024-03-08T12:17:02;7.72;;;3.80;;
83663;SDS011;73634;47.068;15.426;2024-03-08T12:19:29;10.57;;;5.07;;
83663;SDS011;73634;47.068;15.426;2024-03-08T12:21:55;7.57;;;2.83;;
83663;SDS011;73634;47.068;15.426;2024-03-08T12:24:21;7.85;;;4.20;;
83663;SDS011;73634;47.068;15.426;2024-03-08T12:26:47;9.90;;;4.80;;
83663;SDS011;73634;47.068;15.426;2024-03-08T12:29:24;10.23;;;4.25;;
83663;SDS011;73634;47.068;15.426;2024-03-08T12:31:52;8.65;;;2.70;;
83663;SDS011;73634;47.068;15.426;2024-03-08T12:36:06;8.38;;;3.40;;
83663;SDS011;73634;47.068;15.426;2024-03-08T12:38:39;8.27;;;3.67;;
83663;SDS011;73634;47.068;15.426;2024-03-08T12:41:05;9.40;;;3.83;;
83663;SDS011;73634;47.068;15.426;2024-03-08T12:43:30;11.95;;;4.45;;
83663;SDS011;73634;47.068;15.426;2024-03-08T12:45:56;9.57;;;3.75;;
83663;SDS011;73634;47.068;15.426;2024-03-08T12:48:22;13.68;;;5.32;;
83663;SDS011;73634;47.068;15.426;2024-03-08T12:50:47;10.25;;;4.25;;
83663;SDS011;73634;47.068;15.426;2024-03-08T12:53:13;8.00;;;4.03;;
83663;SDS011;73634;47.068;15.426;2024-03-08T12:55:39;9.40;;;3.90;;
83663;SDS011;73634;47.068;15.426;2024-03-08T12:58:05;9.73;;;3.95;;
83663;SDS011;73634;47.068;15.426;2024-03-08T13:03:04;8.85;;;3.70;;
83663;SDS011;73634;47.068;15.426;2024-03-08T13:05:31;10.05;;;4.53;;
83663;SDS011;73634;47.068;15.426;2024-03-08T13:07:56;8.73;;;3.95;;
83663;SDS011;73634;47.068;15.426;2024-03-08T13:10:22;12.82;;;5.15;;
83663;SDS011;73634;47.068;15.426;2024-03-08T13:12:47;12.77;;;5.82;;
83663;SDS011;73634;47.068;15.426;2024-03-08T13:15:13;10.27;;;4.15;;
83663;SDS011;73634;47.068;15.426;2024-03-08T13:17:45;9.13;;;4.00;;
83663;SDS011;73634;47.068;15.426;2024-03-08T13:20:13;7.20;;;3.00;;
83663;SDS011;73634;47.068;15.426;2024-03-08T13:22:42;6.82;;;3.80;;
83663;SDS011;73634;47.068;15.426;2024-03-08T13:27:46;9.25;;;3.58;;
83663;SDS011;73634;47.068;15.426;2024-03-08T13:30:12;7.65;;;3.92;;
83663;SDS011;73634;47.068;15.426;2024-03-08T13:32:39;7.55;;;2.75;;
83663;SDS011;73634;47.068;15.426;2024-03-08T13:35:06;7.75;;;3.35;;
83663;SDS011;73634;47.068;15.426;2024-03-08T13:37:40;10.70;;;4.93;;
83663;SDS011;73634;47.068;15.426;2024-03-08T13:40:07;5.22;;;2.30;;
83663;SDS011;73634;47.068;15.426;2024-03-08T13:42:38;8.88;;;4.18;;
83663;SDS011;73634;47.068;15.426;2024-03-08T13:45:07;7.78;;;3.85;;
83663;SDS011;73634;47.068;15.426;2024-03-08T13:47:40;8.65;;;3.67;;
83663;SDS011;73634;47.068;15.426;2024-03-08T13:50:10;11.55;;;4.70;;
83663;SDS011;73634;47.068;15.426;2024-03-08T13:54:41;9.52;;;3.65;;
83663;SDS011;73634;47.068;15.426;2024-03-08T13:57:07;5.50;;;2.58;;
83663;SDS011;73634;47.068;15.426;2024-03-08T13:59:33;7.90;;;2.85;;
83663;SDS011;73634;47.068;15.426;2024-03-08T14:02:04;9.20;;;4.32;;
83663;SDS011;73634;47.068;15.426;2024-03-08T14:04:30;9.52;;;4.07;;
83663;SDS011;73634;47.068;15.426;2024-03-08T14:06:56;7.47;;;3.13;;
83663;SDS011;73634;47.068;15.426;2024-03-08T14:09:27;7.05;;;4.38;;
83663;SDS011;73634;47.068;15.426;2024-03-08T14:11:57;7.88;;;3.50;;
83663;SDS011;73634;47.068;15.426;2024-03-08T14:14:23;11.35;;;5.30;;
83663;SDS011;73634;47.068;15.426;2024-03-08T14:18:08;9.52;;;3.53;;
83663;SDS011;73634;47.068;15.426;2024-03-08T14:20:34;12.18;;;4.80;;
83663;SDS011;73634;47.068;15.426;2024-03-08T14:22:59;8.82;;;3.90;;
83663;SDS011;73634;47.068;15.426;2024-03-08T14:25:24;9.90;;;4.22;;
83663;SDS011;73634;47.068;15.426;2024-03-08T14:27:50;7.93;;;3.40;;
83663;SDS011;73634;47.068;15.426;2024-03-08T14:30:23;7.28;;;3.40;;
83663;SDS011;73634;47.068;15.426;2024-03-08T14:32:59;12.98;;;4.45;;
83663;SDS011;73634;47.068;15.426;2024-03-08T14:35:26;7.93;;;4.00;;
83663;SDS011;73634;47.068;15.426;2024-03-08T14:37:52;9.60;;;4.40;;
83663;SDS011;73634;47.068;15.426;2024-03-08T14:40:18;10.38;;;4.85;;
83663;SDS011;73634;47.068;15.426;2024-03-08T14:44:26;7.70;;;2.78;;
83663;SDS011;73634;47.068;15.426;2024-03-08T14:46:52;10.20;;;4.72;;
83663;SDS011;73634;47.068;15.426;2024-03-08T14:49:18;7.18;;;3.08;;
83663;SDS011;73634;47.068;15.426;2024-03-08T14:51:46;10.27;;;3.72;;
83663;SDS011;73634;47.068;15.426;2024-03-08T14:54:12;8.60;;;3.78;;
83663;SDS011;73634;47.068;15.426;2024-03-08T14:56:38;9.10;;;4.05;;
83663;SDS011;73634;47.068;15.426;2024-03-08T14:59:06;10.10;;;4.57;;
83663;SDS011;73634;47.068;15.426;2024-03-08T15:01:33;12.88;;;5.07;;
83663;SDS011;73634;47.068;15.426;2024-03-08T15:04:00;7.25;;;3.33;;
83663;SDS011;73634;47.068;15.426;2024-03-08T15:09:05;8.40;;;4.47;;
83663;SDS011;73634;47.068;15.426;2024-03-08T15:11:44;6.57;;;3.30;;
83663;SDS011;73634;47.068;15.426;2024-03-08T15:14:10;12.32;;;5.28;;
83663;SDS011;73634;47.068;15.426;2024-03-08T15:16:40;9.15;;;4.32;;
83663;SDS011;73634;47.068;15.426;2024-03-08T15:19:06;13.85;;;5.25;;
83663;SDS011;73634;47.068;15.426;2024-03-08T15:21:32;10.63;;;4.82;;
83663;SDS011;73634;47.068;15.426;2024-03-08T15:23:57;11.93;;;5.88;;
83663;SDS011;73634;47.068;15.426;2024-03-08T15:26:22;10.85;;;5.43;;
83663;SDS011;73634;47.068;15.426;2024-03-08T15:28:50;12.48;;;4.78;;
83663;SDS011;73634;47.068;15.426;2024-03-08T15:33:48;9.95;;;4.65;;
83663;SDS011;73634;47.068;15.426;2024-03-08T15:36:16;11.65;;;4.88;;
83663;SDS011;73634;47.068;15.426;2024-03-08T15:38:42;11.63;;;4.15;;
83663;SDS011;73634;47.068;15.426;2024-03-08T15:41:15;11.55;;;4.63;;
83663;SDS011;73634;47.068;15.426;2024-03-08T15:43:42;10.88;;;5.10;;
83663;SDS011;73634;47.068;15.426;2024-03-08T15:46:09;10.35;;;5.15;;
83663;SDS011;73634;47.068;15.426;2024-03-08T15:48:35;8.32;;;3.88;;
83663;SDS011;73634;47.068;15.426;2024-03-08T15:51:02;9.57;;;4.63;;
83663;SDS011;73634;47.068;15.426;2024-03-08T15:53:30;7.45;;;3.05;;
83663;SDS011;73634;47.068;15.426;2024-03-08T15:55:56;9.38;;;4.55;;
83663;SDS011;73634;47.068;15.426;2024-03-08T16:00:46;11.93;;;5.68;;
83663;SDS011;73634;47.068;15.426;2024-03-08T16:03:12;11.57;;;5.28;;